الصفحة الرئيسية
METAR-TAF:

METAR-TAF

مطار :

North Las Vegas Airport

نورث لاس فيغاس, نيفادا, الولايات المتحدة

دائرة عرض: 36-12-42N, خط طول: 115-11-45W, ارتفاع: 672 متر

مراقبة الطقس الحالي

تاريخ ووقت الإصدار 48 دقيقة قبل الساعة 01:53UTC
ريح 8 عقدة من الشرق/الجنوب الشرقي
درجة الحرارة 29°درجة مئوية
الرطوبة 11%
ضغط 1012 hPa
الرؤية: 16.1 كم
سماء صافية

METAR: KVGT 230153Z AUTO 12008KT 10SM CLR 29/M04 A2989 RMK AO2 SLP121 T02891044

زمن: 19:41 (02:41 UTC)

توقعات

تاريخ ووقت الإصدار 3ساعات و 21 دقيقة قبل الساعة 23:20UTC
التوقعات صالحة من23 الساعة 00 UTC إلى 23 الساعة 24 UTC
ريح 7 عقدة من الشرق/الجنوب الشرقي
الرؤية: 10 كم
غيوم مفككة على ارتفاع 25000 قدم
من 23 الساعة 0300 UTC
ريح 6 عقدةمن اتجاهات متغيرة
الرؤية: 10 كم
غيوم مفككة على ارتفاع 25000 قدم
من 23 الساعة 1800 UTC
ريح 10 عقدة من الجنوب/الجنوب الغربي
الرؤية: 10 كم
غيوم مفككة على ارتفاع 25000 قدم
من 23 الساعة 2300 UTC
ريح 10 عقدة من الغرب/الشمال الغربي
الرؤية: 10 كم
غيوم مفككة على ارتفاع 25000 قدم

TAF: KVGT 222320Z 2300/2324 12007KT P6SM BKN250 FM230300 VRB06KT P6SM BKN250 FM231800 20010KT P6SM BKN250 FM232300 30010KT P6SM BKN250

أرصاد الطقس والتوقعات من أكثر من 4000 مطار (تقارير الطقس للمطار METAR والتنبؤ بالطقس بالمطارTAF).

المحطات المتاحة هي النقط الصفراء والحمراء على الخريطة.

حرك المؤشر فوق النقطة لمعرفة اسم المحطة.

ثم انقر لمعرفة أرصاد وتوقعات الطقس.

لتغيير الخارطة: اضغط على الأزرار الخضراء مع رمز الصليب الأسود للتكبير. على الزر الأخضر مع شرطة للتصغير، أو على الأسهم الخضراء للخرائط المجاورة.


METAR-TAF: